KGLW/GLW METAR and TAF weather

Enter ICAO airport designator
Station Type Date Time Source
KGLW METAR 2020/02/16 19:55 UTC NOAA

KGLW 161955Z AUTO 23005KT 10SM OVC033 11/00 A3007 RMK AO2 T01050002


Station Type Date Time Source
KGLW Decoded METAR 2020/02/16 19:55 UTC NOAA

Glasgow, Glasgow Municipal Airport, KY, United States (KGLW) 37-01-54N 085-57-13W
Feb 16, 2020 - 02:55 PM EST / 2020.02.16 1955 UTC
Wind: from the SW (230 degrees) at 6 MPH (5 KT):0
Visibility: 10 mile(s):0
Sky conditions: overcast
Temperature: 50.9 F (10.5 C)
Dew Point: 32.4 F (0.2 C)
Relative Humidity: 48%
Pressure (altimeter): 30.07 in. Hg (1018 hPa)
ob: KGLW 161955Z AUTO 23005KT 10SM OVC033 11/00 A3007 RMK AO2 T01050002
cycle: 20

Station Type Date Time Source
KGLW TAF UTC NOAA

Error!

Example: see airport list